Главная страница
METAR-TAF:

METAR-TAF

Аэропорты :

Каструп

Копенгаген, Дания

широта: 55-37N, долгота: 012-39E, высота над уровнем моря: 5 м

Текущие метеонаблюдения

Эта сводка был подготовлена 31 минут назад, в 21:20 UTC
Ветер 9 Узел от юго-юго-восточный
Температура 11°C
Влажность 87%
Давление 1013 hPa
Видимость: 4000 м
дымка

METAR: EKCH 252120Z 15009KT 4000 BR NSC 11/09 Q1013 TEMPO 6000

Время: 23:51 (21:51 UTC)

Прогноз

Эта сводка был подготовлена 1 час и 12 минут назад, в 20:39 UTC
Прогноз действительный с 25-го 20 UTC до 26-го 18 UTC
Ветер 8 Узел от юго-юго-восточный
Видимость 10 км и более
небольшая облачность на высоте 3000 фута
временами
С 25-го 20 UTC до 26-го 06 UTC
Видимость: 4000 м
дымка
изменения
С 26-го 00 UTC до 26-го 03 UTC
Ветер 8 Узел от восточно-северо-восточный

TAF: EKCH 252039Z 2520/2618 16008KT 9999 FEW030 TEMPO 2520/2606 4000 BR BECMG 2600/2603 06008KT

Метеонаблюдения и прогнозы для более 4000 аэропортов (сводки METAR и TAF).

Имеющиеся станции представлены на карте желтыми и красными точками.

Чтобы увидеть название станции, наведите на нее мышь.

Затем щелкните, чтобы увидеть метеонаблюдения и метеопрогнозы.

Управление картой: чтобы увеличить масштаб, щелкните зеленые кнопки с черным крестиком; чтобы уменьшить масштаб, щелкните зеленую кнопку с тире; для просмотра соседних карт щелкайте зеленые стрелки.


METAR-TAF: